sensor_id;sensor_type;location;lat;lon;timestamp;temperature;humidity
14908;DHT22;7545;52.092;7.006;2023-03-01T00:01:32;1.20;99.90
14908;DHT22;7545;52.092;7.006;2023-03-01T00:03:58;1.20;99.90
14908;DHT22;7545;52.092;7.006;2023-03-01T00:06:25;1.10;99.90
14908;DHT22;7545;52.092;7.006;2023-03-01T00:08:51;1.10;99.90
14908;DHT22;7545;52.092;7.006;2023-03-01T00:11:18;1.10;99.90
14908;DHT22;7545;52.092;7.006;2023-03-01T00:13:45;1.10;99.90
14908;DHT22;7545;52.092;7.006;2023-03-01T00:16:13;1.10;99.90
14908;DHT22;7545;52.092;7.006;2023-03-01T00:18:39;1.00;99.90
14908;DHT22;7545;52.092;7.006;2023-03-01T00:21:05;1.00;99.90
14908;DHT22;7545;52.092;7.006;2023-03-01T00:23:33;1.00;99.90
14908;DHT22;7545;52.092;7.006;2023-03-01T00:25:59;0.90;99.90
14908;DHT22;7545;52.092;7.006;2023-03-01T00:28:25;0.90;99.90
14908;DHT22;7545;52.092;7.006;2023-03-01T00:30:51;1.00;99.90
14908;DHT22;7545;52.092;7.006;2023-03-01T00:33:16;1.00;99.90
14908;DHT22;7545;52.092;7.006;2023-03-01T00:35:42;0.90;99.90
14908;DHT22;7545;52.092;7.006;2023-03-01T00:38:08;0.90;99.90
14908;DHT22;7545;52.092;7.006;2023-03-01T00:40:35;0.80;99.90
14908;DHT22;7545;52.092;7.006;2023-03-01T00:43:01;0.80;99.90
14908;DHT22;7545;52.092;7.006;2023-03-01T00:45:27;0.80;99.90
14908;DHT22;7545;52.092;7.006;2023-03-01T00:47:53;0.80;99.90
14908;DHT22;7545;52.092;7.006;2023-03-01T00:50:19;0.80;99.90
14908;DHT22;7545;52.092;7.006;2023-03-01T00:52:45;0.70;99.90
14908;DHT22;7545;52.092;7.006;2023-03-01T00:55:11;0.70;99.90
14908;DHT22;7545;52.092;7.006;2023-03-01T00:57:37;0.70;99.90
14908;DHT22;7545;52.092;7.006;2023-03-01T01:00:06;0.70;99.90
14908;DHT22;7545;52.092;7.006;2023-03-01T01:02:33;0.70;99.90
14908;DHT22;7545;52.092;7.006;2023-03-01T01:04:59;0.70;99.90
14908;DHT22;7545;52.092;7.006;2023-03-01T01:07:25;0.60;99.90
14908;DHT22;7545;52.092;7.006;2023-03-01T01:09:50;0.60;99.90
14908;DHT22;7545;52.092;7.006;2023-03-01T01:12:16;0.60;99.90
14908;DHT22;7545;52.092;7.006;2023-03-01T01:14:41;0.60;99.90
14908;DHT22;7545;52.092;7.006;2023-03-01T01:17:07;0.50;99.90
14908;DHT22;7545;52.092;7.006;2023-03-01T01:19:33;0.50;99.90
14908;DHT22;7545;52.092;7.006;2023-03-01T01:21:58;0.50;99.90
14908;DHT22;7545;52.092;7.006;2023-03-01T01:24:24;0.50;99.90
14908;DHT22;7545;52.092;7.006;2023-03-01T01:26:49;0.40;99.90
14908;DHT22;7545;52.092;7.006;2023-03-01T01:29:15;0.40;99.90
14908;DHT22;7545;52.092;7.006;2023-03-01T01:31:42;0.40;99.90
14908;DHT22;7545;52.092;7.006;2023-03-01T01:34:13;0.40;99.90
14908;DHT22;7545;52.092;7.006;2023-03-01T01:36:39;0.40;99.90
14908;DHT22;7545;52.092;7.006;2023-03-01T01:39:05;0.30;99.90
14908;DHT22;7545;52.092;7.006;2023-03-01T01:41:31;0.40;99.90
14908;DHT22;7545;52.092;7.006;2023-03-01T01:57:16;0.20;99.90
14908;DHT22;7545;52.092;7.006;2023-03-01T01:59:47;0.20;99.90
14908;DHT22;7545;52.092;7.006;2023-03-01T02:02:14;0.20;99.90
14908;DHT22;7545;52.092;7.006;2023-03-01T02:04:41;0.10;99.90
14908;DHT22;7545;52.092;7.006;2023-03-01T02:07:15;0.10;99.90
14908;DHT22;7545;52.092;7.006;2023-03-01T02:09:43;0.10;99.90
14908;DHT22;7545;52.092;7.006;2023-03-01T02:12:10;0.10;99.90
14908;DHT22;7545;52.092;7.006;2023-03-01T02:14:36;0.10;99.90
14908;DHT22;7545;52.092;7.006;2023-03-01T02:17:02;0.10;99.90
14908;DHT22;7545;52.092;7.006;2023-03-01T02:19:52;0.10;99.90
14908;DHT22;7545;52.092;7.006;2023-03-01T02:22:30;0.00;99.90
14908;DHT22;7545;52.092;7.006;2023-03-01T02:27:59;0.00;99.90
14908;DHT22;7545;52.092;7.006;2023-03-01T02:30:26;0.00;99.90
14908;DHT22;7545;52.092;7.006;2023-03-01T02:32:54;0.00;99.90
14908;DHT22;7545;52.092;7.006;2023-03-01T02:35:32;0.00;99.90
14908;DHT22;7545;52.092;7.006;2023-03-01T02:37:58;-0.10;99.90
14908;DHT22;7545;52.092;7.006;2023-03-01T02:40:27;-0.10;99.90
14908;DHT22;7545;52.092;7.006;2023-03-01T02:42:56;-0.10;99.90
14908;DHT22;7545;52.092;7.006;2023-03-01T02:45:22;-0.10;99.90
14908;DHT22;7545;52.092;7.006;2023-03-01T02:47:48;-0.20;99.90
14908;DHT22;7545;52.092;7.006;2023-03-01T02:53:11;-0.20;99.90
14908;DHT22;7545;52.092;7.006;2023-03-01T02:55:38;-0.20;99.90
14908;DHT22;7545;52.092;7.006;2023-03-01T02:58:04;-0.20;99.90
14908;DHT22;7545;52.092;7.006;2023-03-01T03:00:35;-0.20;99.90
14908;DHT22;7545;52.092;7.006;2023-03-01T03:03:05;-0.20;99.90
14908;DHT22;7545;52.092;7.006;2023-03-01T03:05:31;-0.20;99.90
14908;DHT22;7545;52.092;7.006;2023-03-01T03:07:59;-0.30;99.90
14908;DHT22;7545;52.092;7.006;2023-03-01T03:10:28;-0.30;99.90
14908;DHT22;7545;52.092;7.006;2023-03-01T03:13:03;-0.30;99.90
14908;DHT22;7545;52.092;7.006;2023-03-01T03:15:29;-0.30;99.90
14908;DHT22;7545;52.092;7.006;2023-03-01T03:17:56;-0.30;99.90
14908;DHT22;7545;52.092;7.006;2023-03-01T03:20:24;-0.40;99.90
14908;DHT22;7545;52.092;7.006;2023-03-01T03:22:52;-0.40;99.90
14908;DHT22;7545;52.092;7.006;2023-03-01T03:25:19;-0.40;99.90
14908;DHT22;7545;52.092;7.006;2023-03-01T03:27:47;-0.40;99.90
14908;DHT22;7545;52.092;7.006;2023-03-01T03:30:16;-0.40;99.90
14908;DHT22;7545;52.092;7.006;2023-03-01T03:32:43;-0.50;99.90
14908;DHT22;7545;52.092;7.006;2023-03-01T03:35:28;-0.40;99.90
14908;DHT22;7545;52.092;7.006;2023-03-01T03:37:56;-0.50;99.90
14908;DHT22;7545;52.092;7.006;2023-03-01T03:40:33;-0.50;99.90
14908;DHT22;7545;52.092;7.006;2023-03-01T03:42:59;-0.50;99.90
14908;DHT22;7545;52.092;7.006;2023-03-01T03:45:24;-0.50;99.90
14908;DHT22;7545;52.092;7.006;2023-03-01T03:47:50;-0.50;99.90
14908;DHT22;7545;52.092;7.006;2023-03-01T03:50:17;-0.50;99.90
14908;DHT22;7545;52.092;7.006;2023-03-01T03:52:43;-0.50;99.90
14908;DHT22;7545;52.092;7.006;2023-03-01T03:55:10;-0.60;99.90
14908;DHT22;7545;52.092;7.006;2023-03-01T03:57:37;-0.60;99.90
14908;DHT22;7545;52.092;7.006;2023-03-01T04:00:04;-0.60;99.90
14908;DHT22;7545;52.092;7.006;2023-03-01T04:02:30;-0.60;99.90
14908;DHT22;7545;52.092;7.006;2023-03-01T04:04:56;-0.60;99.90
14908;DHT22;7545;52.092;7.006;2023-03-01T04:07:22;-0.60;99.90
14908;DHT22;7545;52.092;7.006;2023-03-01T04:09:47;-0.60;99.90
14908;DHT22;7545;52.092;7.006;2023-03-01T04:12:13;-0.60;99.90
14908;DHT22;7545;52.092;7.006;2023-03-01T04:14:38;-0.70;99.90
14908;DHT22;7545;52.092;7.006;2023-03-01T04:17:04;-0.70;99.90
14908;DHT22;7545;52.092;7.006;2023-03-01T04:19:31;-0.70;99.90
14908;DHT22;7545;52.092;7.006;2023-03-01T04:22:02;-0.70;99.90
14908;DHT22;7545;52.092;7.006;2023-03-01T04:24:33;-0.70;99.90
14908;DHT22;7545;52.092;7.006;2023-03-01T04:26:58;-0.70;99.90
14908;DHT22;7545;52.092;7.006;2023-03-01T04:29:24;-0.70;99.90
14908;DHT22;7545;52.092;7.006;2023-03-01T04:31:49;-0.70;99.90
14908;DHT22;7545;52.092;7.006;2023-03-01T04:34:15;-0.80;99.90
14908;DHT22;7545;52.092;7.006;2023-03-01T04:36:41;-0.80;99.90
14908;DHT22;7545;52.092;7.006;2023-03-01T04:39:06;-0.80;99.90
14908;DHT22;7545;52.092;7.006;2023-03-01T04:41:38;-0.70;99.90
14908;DHT22;7545;52.092;7.006;2023-03-01T04:44:08;-0.70;99.90
14908;DHT22;7545;52.092;7.006;2023-03-01T04:46:34;-0.80;99.90
14908;DHT22;7545;52.092;7.006;2023-03-01T04:49:01;-0.80;99.90
14908;DHT22;7545;52.092;7.006;2023-03-01T04:51:26;-0.70;99.90
14908;DHT22;7545;52.092;7.006;2023-03-01T04:53:52;-0.80;99.90
14908;DHT22;7545;52.092;7.006;2023-03-01T04:56:17;-0.80;99.90
14908;DHT22;7545;52.092;7.006;2023-03-01T04:58:44;-0.80;99.90
14908;DHT22;7545;52.092;7.006;2023-03-01T05:01:18;-0.80;99.90
14908;DHT22;7545;52.092;7.006;2023-03-01T05:03:46;-0.90;99.90
14908;DHT22;7545;52.092;7.006;2023-03-01T05:06:15;-0.90;99.90
14908;DHT22;7545;52.092;7.006;2023-03-01T05:08:41;-0.90;99.90
14908;DHT22;7545;52.092;7.006;2023-03-01T05:11:07;-0.90;99.90
14908;DHT22;7545;52.092;7.006;2023-03-01T05:13:35;-0.90;99.90
14908;DHT22;7545;52.092;7.006;2023-03-01T05:16:02;-0.90;99.90
14908;DHT22;7545;52.092;7.006;2023-03-01T05:18:30;-1.00;99.90
14908;DHT22;7545;52.092;7.006;2023-03-01T05:21:02;-1.00;99.90
14908;DHT22;7545;52.092;7.006;2023-03-01T05:23:30;-1.00;99.90
14908;DHT22;7545;52.092;7.006;2023-03-01T05:25:58;-1.00;99.90
14908;DHT22;7545;52.092;7.006;2023-03-01T05:28:25;-1.00;99.90
14908;DHT22;7545;52.092;7.006;2023-03-01T05:30:51;-1.00;99.90
14908;DHT22;7545;52.092;7.006;2023-03-01T05:33:17;-1.10;99.90
14908;DHT22;7545;52.092;7.006;2023-03-01T05:35:45;-1.10;99.90
14908;DHT22;7545;52.092;7.006;2023-03-01T05:38:12;-1.10;99.90
14908;DHT22;7545;52.092;7.006;2023-03-01T05:40:46;-1.10;99.90
14908;DHT22;7545;52.092;7.006;2023-03-01T05:43:14;-1.10;99.90
14908;DHT22;7545;52.092;7.006;2023-03-01T05:45:40;-1.20;99.90
14908;DHT22;7545;52.092;7.006;2023-03-01T05:48:07;-1.20;99.90
14908;DHT22;7545;52.092;7.006;2023-03-01T05:50:35;-1.20;99.90
14908;DHT22;7545;52.092;7.006;2023-03-01T05:53:04;-1.20;99.90
14908;DHT22;7545;52.092;7.006;2023-03-01T05:55:31;-1.20;99.90
14908;DHT22;7545;52.092;7.006;2023-03-01T05:58:02;-1.10;99.90
14908;DHT22;7545;52.092;7.006;2023-03-01T06:00:29;-1.20;99.90
14908;DHT22;7545;52.092;7.006;2023-03-01T06:02:56;-1.20;99.90
14908;DHT22;7545;52.092;7.006;2023-03-01T06:05:23;-1.30;99.90
14908;DHT22;7545;52.092;7.006;2023-03-01T06:07:48;-1.30;99.90
14908;DHT22;7545;52.092;7.006;2023-03-01T06:10:15;-1.30;99.90
14908;DHT22;7545;52.092;7.006;2023-03-01T06:12:42;-1.20;99.90
14908;DHT22;7545;52.092;7.006;2023-03-01T06:15:10;-1.20;99.90
14908;DHT22;7545;52.092;7.006;2023-03-01T06:17:40;-1.20;99.90
14908;DHT22;7545;52.092;7.006;2023-03-01T06:20:12;-1.30;99.90
14908;DHT22;7545;52.092;7.006;2023-03-01T06:22:39;-1.30;99.90
14908;DHT22;7545;52.092;7.006;2023-03-01T06:25:06;-1.30;99.90
14908;DHT22;7545;52.092;7.006;2023-03-01T06:27:32;-1.30;99.90
14908;DHT22;7545;52.092;7.006;2023-03-01T06:29:57;-1.30;99.90
14908;DHT22;7545;52.092;7.006;2023-03-01T06:32:23;-1.30;99.90
14908;DHT22;7545;52.092;7.006;2023-03-01T06:34:49;-1.30;99.90
14908;DHT22;7545;52.092;7.006;2023-03-01T06:37:15;-1.30;99.90
14908;DHT22;7545;52.092;7.006;2023-03-01T06:39:41;-1.30;99.90
14908;DHT22;7545;52.092;7.006;2023-03-01T06:42:08;-1.30;99.90
14908;DHT22;7545;52.092;7.006;2023-03-01T06:44:35;-1.30;99.90
14908;DHT22;7545;52.092;7.006;2023-03-01T06:47:01;-1.30;99.90
14908;DHT22;7545;52.092;7.006;2023-03-01T06:49:27;-1.30;99.90
14908;DHT22;7545;52.092;7.006;2023-03-01T06:51:53;-1.30;99.90
14908;DHT22;7545;52.092;7.006;2023-03-01T06:54:18;-1.20;99.90
14908;DHT22;7545;52.092;7.006;2023-03-01T06:56:47;-1.30;99.90
14908;DHT22;7545;52.092;7.006;2023-03-01T06:59:13;-1.20;99.90
14908;DHT22;7545;52.092;7.006;2023-03-01T07:01:39;-1.20;99.90
14908;DHT22;7545;52.092;7.006;2023-03-01T07:04:04;-1.20;99.90
14908;DHT22;7545;52.092;7.006;2023-03-01T07:06:30;-1.20;99.90
14908;DHT22;7545;52.092;7.006;2023-03-01T07:08:56;-1.20;99.90
14908;DHT22;7545;52.092;7.006;2023-03-01T07:11:21;-1.20;99.90
14908;DHT22;7545;52.092;7.006;2023-03-01T07:13:48;-1.10;99.90
14908;DHT22;7545;52.092;7.006;2023-03-01T07:16:13;-1.10;99.90
14908;DHT22;7545;52.092;7.006;2023-03-01T07:18:40;-1.10;99.90
14908;DHT22;7545;52.092;7.006;2023-03-01T07:21:12;-1.00;99.90
14908;DHT22;7545;52.092;7.006;2023-03-01T07:23:38;-1.00;99.90
14908;DHT22;7545;52.092;7.006;2023-03-01T07:26:04;-0.90;99.90
14908;DHT22;7545;52.092;7.006;2023-03-01T07:28:30;-0.90;99.90
14908;DHT22;7545;52.092;7.006;2023-03-01T07:31:00;-0.80;99.90
14908;DHT22;7545;52.092;7.006;2023-03-01T07:33:26;-0.80;99.90
14908;DHT22;7545;52.092;7.006;2023-03-01T07:36:00;-0.80;99.90
14908;DHT22;7545;52.092;7.006;2023-03-01T07:38:26;-0.70;99.90
14908;DHT22;7545;52.092;7.006;2023-03-01T07:40:52;-0.70;99.90
14908;DHT22;7545;52.092;7.006;2023-03-01T07:43:17;-0.70;99.90
14908;DHT22;7545;52.092;7.006;2023-03-01T07:45:43;-0.60;99.90
14908;DHT22;7545;52.092;7.006;2023-03-01T07:48:09;-0.60;99.90
14908;DHT22;7545;52.092;7.006;2023-03-01T07:50:35;-0.50;99.90
14908;DHT22;7545;52.092;7.006;2023-03-01T07:53:00;-0.40;99.90
14908;DHT22;7545;52.092;7.006;2023-03-01T07:55:26;-0.30;99.90
14908;DHT22;7545;52.092;7.006;2023-03-01T07:57:52;-0.30;99.90
14908;DHT22;7545;52.092;7.006;2023-03-01T08:00:17;-0.20;99.90
14908;DHT22;7545;52.092;7.006;2023-03-01T08:02:43;-0.20;99.90
14908;DHT22;7545;52.092;7.006;2023-03-01T08:05:09;-0.10;99.90
14908;DHT22;7545;52.092;7.006;2023-03-01T08:07:35;-0.10;99.90
14908;DHT22;7545;52.092;7.006;2023-03-01T08:10:01;0.00;99.90
14908;DHT22;7545;52.092;7.006;2023-03-01T08:12:26;0.00;99.90
14908;DHT22;7545;52.092;7.006;2023-03-01T08:14:53;0.10;99.90
14908;DHT22;7545;52.092;7.006;2023-03-01T08:17:19;0.20;99.90
14908;DHT22;7545;52.092;7.006;2023-03-01T08:19:45;0.20;99.90
14908;DHT22;7545;52.092;7.006;2023-03-01T08:22:11;0.30;99.90
14908;DHT22;7545;52.092;7.006;2023-03-01T08:24:36;0.40;99.90
14908;DHT22;7545;52.092;7.006;2023-03-01T08:27:02;0.50;99.90
14908;DHT22;7545;52.092;7.006;2023-03-01T08:29:30;0.60;99.90
14908;DHT22;7545;52.092;7.006;2023-03-01T08:31:56;0.70;99.90
14908;DHT22;7545;52.092;7.006;2023-03-01T08:34:21;0.80;99.90
14908;DHT22;7545;52.092;7.006;2023-03-01T08:36:47;0.90;99.90
14908;DHT22;7545;52.092;7.006;2023-03-01T08:39:15;1.00;99.90
14908;DHT22;7545;52.092;7.006;2023-03-01T08:41:41;1.10;99.90
14908;DHT22;7545;52.092;7.006;2023-03-01T08:44:08;1.20;99.90
14908;DHT22;7545;52.092;7.006;2023-03-01T08:46:39;1.30;99.90
14908;DHT22;7545;52.092;7.006;2023-03-01T08:49:07;1.30;99.90
14908;DHT22;7545;52.092;7.006;2023-03-01T08:51:33;1.40;99.90
14908;DHT22;7545;52.092;7.006;2023-03-01T08:54:06;1.50;99.90
14908;DHT22;7545;52.092;7.006;2023-03-01T08:56:32;1.60;99.90
14908;DHT22;7545;52.092;7.006;2023-03-01T08:58:58;1.70;99.90
14908;DHT22;7545;52.092;7.006;2023-03-01T09:01:24;1.80;99.90
14908;DHT22;7545;52.092;7.006;2023-03-01T09:03:49;1.80;99.90
14908;DHT22;7545;52.092;7.006;2023-03-01T09:06:15;1.90;99.90
14908;DHT22;7545;52.092;7.006;2023-03-01T09:08:45;2.00;99.90
14908;DHT22;7545;52.092;7.006;2023-03-01T09:11:13;2.10;99.90
14908;DHT22;7545;52.092;7.006;2023-03-01T09:13:39;2.20;99.90
14908;DHT22;7545;52.092;7.006;2023-03-01T09:16:06;2.20;99.90
14908;DHT22;7545;52.092;7.006;2023-03-01T09:18:33;2.30;99.90
14908;DHT22;7545;52.092;7.006;2023-03-01T09:21:04;2.30;99.90
14908;DHT22;7545;52.092;7.006;2023-03-01T09:23:36;2.40;99.90
14908;DHT22;7545;52.092;7.006;2023-03-01T09:26:04;2.50;99.90
14908;DHT22;7545;52.092;7.006;2023-03-01T09:28:30;2.50;99.90
14908;DHT22;7545;52.092;7.006;2023-03-01T09:31:00;2.70;99.90
14908;DHT22;7545;52.092;7.006;2023-03-01T09:33:27;2.80;99.90
14908;DHT22;7545;52.092;7.006;2023-03-01T09:36:04;2.90;99.90
14908;DHT22;7545;52.092;7.006;2023-03-01T09:38:30;3.00;99.90
14908;DHT22;7545;52.092;7.006;2023-03-01T09:40:56;3.10;99.90
14908;DHT22;7545;52.092;7.006;2023-03-01T09:46:10;3.20;99.90
14908;DHT22;7545;52.092;7.006;2023-03-01T09:48:44;3.30;99.90
14908;DHT22;7545;52.092;7.006;2023-03-01T09:51:32;3.30;99.90
14908;DHT22;7545;52.092;7.006;2023-03-01T09:54:01;3.40;99.90
14908;DHT22;7545;52.092;7.006;2023-03-01T09:59:23;3.60;99.90
14908;DHT22;7545;52.092;7.006;2023-03-01T10:04:57;3.80;99.90
14908;DHT22;7545;52.092;7.006;2023-03-01T10:07:40;3.80;99.90
14908;DHT22;7545;52.092;7.006;2023-03-01T10:10:08;3.90;99.90
14908;DHT22;7545;52.092;7.006;2023-03-01T10:12:42;4.00;99.90
14908;DHT22;7545;52.092;7.006;2023-03-01T10:15:18;4.00;99.90
14908;DHT22;7545;52.092;7.006;2023-03-01T10:17:55;4.10;99.90
14908;DHT22;7545;52.092;7.006;2023-03-01T10:20:26;4.10;99.90
14908;DHT22;7545;52.092;7.006;2023-03-01T10:22:54;4.30;99.90
14908;DHT22;7545;52.092;7.006;2023-03-01T10:31:17;4.50;99.90
14908;DHT22;7545;52.092;7.006;2023-03-01T10:33:44;4.60;99.90
14908;DHT22;7545;52.092;7.006;2023-03-01T10:36:10;4.60;99.90
14908;DHT22;7545;52.092;7.006;2023-03-01T10:38:56;4.70;99.90
14908;DHT22;7545;52.092;7.006;2023-03-01T10:41:24;4.80;99.90
14908;DHT22;7545;52.092;7.006;2023-03-01T10:43:55;4.80;99.90
14908;DHT22;7545;52.092;7.006;2023-03-01T10:46:33;4.90;99.90
14908;DHT22;7545;52.092;7.006;2023-03-01T10:49:18;5.00;99.90
14908;DHT22;7545;52.092;7.006;2023-03-01T10:51:46;5.00;99.90
14908;DHT22;7545;52.092;7.006;2023-03-01T10:54:29;5.10;99.90
14908;DHT22;7545;52.092;7.006;2023-03-01T10:57:01;5.20;99.90
14908;DHT22;7545;52.092;7.006;2023-03-01T10:59:32;5.30;99.90
14908;DHT22;7545;52.092;7.006;2023-03-01T11:02:21;5.30;99.90
14908;DHT22;7545;52.092;7.006;2023-03-01T11:04:59;5.40;99.90
14908;DHT22;7545;52.092;7.006;2023-03-01T11:07:26;5.40;99.90
14908;DHT22;7545;52.092;7.006;2023-03-01T11:09:52;5.50;99.90
14908;DHT22;7545;52.092;7.006;2023-03-01T11:12:18;5.60;99.90
14908;DHT22;7545;52.092;7.006;2023-03-01T11:15:02;5.60;99.90
14908;DHT22;7545;52.092;7.006;2023-03-01T11:17:29;5.70;99.90
14908;DHT22;7545;52.092;7.006;2023-03-01T11:22:53;5.90;99.90
14908;DHT22;7545;52.092;7.006;2023-03-01T11:25:41;5.90;99.90
14908;DHT22;7545;52.092;7.006;2023-03-01T11:28:14;5.90;99.90
14908;DHT22;7545;52.092;7.006;2023-03-01T11:30:44;6.00;99.90
14908;DHT22;7545;52.092;7.006;2023-03-01T11:38:40;6.20;99.90
14908;DHT22;7545;52.092;7.006;2023-03-01T11:41:14;6.30;99.90
14908;DHT22;7545;52.092;7.006;2023-03-01T11:44:01;6.40;99.90
14908;DHT22;7545;52.092;7.006;2023-03-01T11:54:55;6.70;99.90
14908;DHT22;7545;52.092;7.006;2023-03-01T12:08:20;7.00;99.90
14908;DHT22;7545;52.092;7.006;2023-03-01T12:11:16;7.00;99.90
14908;DHT22;7545;52.092;7.006;2023-03-01T12:22:09;7.00;99.90
14908;DHT22;7545;52.092;7.006;2023-03-01T12:30:24;7.20;99.90
14908;DHT22;7545;52.092;7.006;2023-03-01T12:47:26;7.70;99.90
14908;DHT22;7545;52.092;7.006;2023-03-01T12:50:06;7.70;99.90
14908;DHT22;7545;52.092;7.006;2023-03-01T12:52:43;7.80;99.90
14908;DHT22;7545;52.092;7.006;2023-03-01T12:55:27;7.80;99.90
14908;DHT22;7545;52.092;7.006;2023-03-01T13:00:40;7.90;99.90
14908;DHT22;7545;52.092;7.006;2023-03-01T13:06:04;8.00;99.90
14908;DHT22;7545;52.092;7.006;2023-03-01T13:08:36;8.00;99.90
14908;DHT22;7545;52.092;7.006;2023-03-01T13:11:06;8.10;99.90
14908;DHT22;7545;52.092;7.006;2023-03-01T13:13:37;8.20;99.90
14908;DHT22;7545;52.092;7.006;2023-03-01T13:21:44;8.40;99.90
14908;DHT22;7545;52.092;7.006;2023-03-01T13:24:43;8.50;99.90
14908;DHT22;7545;52.092;7.006;2023-03-01T13:27:23;8.60;99.90
14908;DHT22;7545;52.092;7.006;2023-03-01T13:29:59;8.60;99.90
14908;DHT22;7545;52.092;7.006;2023-03-01T13:32:33;8.80;99.90
14908;DHT22;7545;52.092;7.006;2023-03-01T13:35:41;8.70;99.90
14908;DHT22;7545;52.092;7.006;2023-03-01T13:37:47;8.80;99.90
14908;DHT22;7545;52.092;7.006;2023-03-01T13:42:48;8.90;99.90
14908;DHT22;7545;52.092;7.006;2023-03-01T13:48:10;8.90;99.90
14908;DHT22;7545;52.092;7.006;2023-03-01T13:50:46;8.90;99.80
14908;DHT22;7545;52.092;7.006;2023-03-01T13:53:17;8.90;99.90
14908;DHT22;7545;52.092;7.006;2023-03-01T13:56:11;9.00;99.90
14908;DHT22;7545;52.092;7.006;2023-03-01T14:01:35;9.00;99.70
14908;DHT22;7545;52.092;7.006;2023-03-01T14:04:18;9.10;99.70
14908;DHT22;7545;52.092;7.006;2023-03-01T14:06:45;9.10;99.70
14908;DHT22;7545;52.092;7.006;2023-03-01T14:09:23;9.20;99.90
14908;DHT22;7545;52.092;7.006;2023-03-01T14:19:48;9.30;99.60
14908;DHT22;7545;52.092;7.006;2023-03-01T14:22:23;9.30;99.10
14908;DHT22;7545;52.092;7.006;2023-03-01T14:25:04;9.40;98.80
14908;DHT22;7545;52.092;7.006;2023-03-01T14:27:37;9.40;99.10
14908;DHT22;7545;52.092;7.006;2023-03-01T14:30:13;9.40;98.90
14908;DHT22;7545;52.092;7.006;2023-03-01T14:32:40;9.40;99.00
14908;DHT22;7545;52.092;7.006;2023-03-01T14:35:29;9.40;99.40
14908;DHT22;7545;52.092;7.006;2023-03-01T14:37:55;9.40;99.40
14908;DHT22;7545;52.092;7.006;2023-03-01T14:40:41;9.40;99.30
14908;DHT22;7545;52.092;7.006;2023-03-01T14:43:13;9.40;99.00
14908;DHT22;7545;52.092;7.006;2023-03-01T14:45:47;9.30;98.60
14908;DHT22;7545;52.092;7.006;2023-03-01T14:48:14;9.30;98.60
14908;DHT22;7545;52.092;7.006;2023-03-01T14:50:41;9.30;98.70
14908;DHT22;7545;52.092;7.006;2023-03-01T14:53:19;9.20;98.30
14908;DHT22;7545;52.092;7.006;2023-03-01T14:55:53;9.10;98.10
14908;DHT22;7545;52.092;7.006;2023-03-01T14:58:22;9.00;98.40
14908;DHT22;7545;52.092;7.006;2023-03-01T15:01:00;9.00;99.10
14908;DHT22;7545;52.092;7.006;2023-03-01T15:03:42;9.00;98.80
14908;DHT22;7545;52.092;7.006;2023-03-01T15:06:10;9.00;98.90
14908;DHT22;7545;52.092;7.006;2023-03-01T15:08:41;8.90;99.00
14908;DHT22;7545;52.092;7.006;2023-03-01T15:13:40;8.90;99.90
14908;DHT22;7545;52.092;7.006;2023-03-01T15:16:21;9.00;99.90
14908;DHT22;7545;52.092;7.006;2023-03-01T15:18:56;9.00;99.60
14908;DHT22;7545;52.092;7.006;2023-03-01T15:21:25;8.90;99.70
14908;DHT22;7545;52.092;7.006;2023-03-01T15:23:59;8.90;99.90
14908;DHT22;7545;52.092;7.006;2023-03-01T15:26:31;8.80;99.90
14908;DHT22;7545;52.092;7.006;2023-03-01T15:28:59;8.80;99.90
14908;DHT22;7545;52.092;7.006;2023-03-01T15:31:28;8.70;99.90
14908;DHT22;7545;52.092;7.006;2023-03-01T15:34:10;8.60;99.90
14908;DHT22;7545;52.092;7.006;2023-03-01T15:36:43;8.70;99.90
14908;DHT22;7545;52.092;7.006;2023-03-01T15:41:53;8.60;99.90
14908;DHT22;7545;52.092;7.006;2023-03-01T15:44:29;8.60;99.90
14908;DHT22;7545;52.092;7.006;2023-03-01T15:46:55;8.60;99.90
14908;DHT22;7545;52.092;7.006;2023-03-01T15:49:35;8.60;99.90
14908;DHT22;7545;52.092;7.006;2023-03-01T15:52:02;8.60;99.90
14908;DHT22;7545;52.092;7.006;2023-03-01T15:54:28;8.60;99.90
14908;DHT22;7545;52.092;7.006;2023-03-01T15:56:54;8.50;99.90
14908;DHT22;7545;52.092;7.006;2023-03-01T15:59:20;8.50;99.90
14908;DHT22;7545;52.092;7.006;2023-03-01T16:01:48;8.50;99.90
14908;DHT22;7545;52.092;7.006;2023-03-01T16:04:15;8.50;99.90
14908;DHT22;7545;52.092;7.006;2023-03-01T16:06:53;8.50;99.90
14908;DHT22;7545;52.092;7.006;2023-03-01T16:09:26;8.50;99.90
14908;DHT22;7545;52.092;7.006;2023-03-01T16:11:52;8.50;99.90
14908;DHT22;7545;52.092;7.006;2023-03-01T16:14:18;8.50;99.90
14908;DHT22;7545;52.092;7.006;2023-03-01T16:16:45;8.40;99.90
14908;DHT22;7545;52.092;7.006;2023-03-01T16:19:10;8.40;99.90
14908;DHT22;7545;52.092;7.006;2023-03-01T16:21:37;8.40;99.90
14908;DHT22;7545;52.092;7.006;2023-03-01T16:24:03;8.20;99.90
14908;DHT22;7545;52.092;7.006;2023-03-01T16:26:32;8.20;99.90
14908;DHT22;7545;52.092;7.006;2023-03-01T16:28:58;8.10;99.90
14908;DHT22;7545;52.092;7.006;2023-03-01T16:31:24;8.00;99.90
14908;DHT22;7545;52.092;7.006;2023-03-01T16:33:53;7.90;99.90
14908;DHT22;7545;52.092;7.006;2023-03-01T16:36:20;7.80;99.90
14908;DHT22;7545;52.092;7.006;2023-03-01T16:38:46;7.70;99.90
14908;DHT22;7545;52.092;7.006;2023-03-01T16:41:14;7.60;99.90
14908;DHT22;7545;52.092;7.006;2023-03-01T16:43:40;7.60;99.90
14908;DHT22;7545;52.092;7.006;2023-03-01T16:46:14;7.70;99.90
14908;DHT22;7545;52.092;7.006;2023-03-01T16:48:40;7.70;99.90
14908;DHT22;7545;52.092;7.006;2023-03-01T16:51:07;7.70;99.90
14908;DHT22;7545;52.092;7.006;2023-03-01T16:53:34;7.80;99.90
14908;DHT22;7545;52.092;7.006;2023-03-01T16:56:02;7.80;99.90
14908;DHT22;7545;52.092;7.006;2023-03-01T16:58:28;7.80;99.90
14908;DHT22;7545;52.092;7.006;2023-03-01T17:00:55;7.80;99.90
14908;DHT22;7545;52.092;7.006;2023-03-01T17:03:23;7.80;99.90
14908;DHT22;7545;52.092;7.006;2023-03-01T17:05:49;7.80;99.90
14908;DHT22;7545;52.092;7.006;2023-03-01T17:08:15;7.70;99.90
14908;DHT22;7545;52.092;7.006;2023-03-01T17:10:41;7.60;99.90
14908;DHT22;7545;52.092;7.006;2023-03-01T17:13:08;7.40;99.90
14908;DHT22;7545;52.092;7.006;2023-03-01T17:15:37;7.30;99.90
14908;DHT22;7545;52.092;7.006;2023-03-01T17:18:03;7.10;99.90
14908;DHT22;7545;52.092;7.006;2023-03-01T17:20:28;7.00;99.90
14908;DHT22;7545;52.092;7.006;2023-03-01T17:22:54;7.00;99.90
14908;DHT22;7545;52.092;7.006;2023-03-01T17:25:19;6.90;99.90
14908;DHT22;7545;52.092;7.006;2023-03-01T17:27:45;6.90;99.90
14908;DHT22;7545;52.092;7.006;2023-03-01T17:30:12;6.80;99.90
14908;DHT22;7545;52.092;7.006;2023-03-01T17:32:38;6.80;99.90
14908;DHT22;7545;52.092;7.006;2023-03-01T17:35:04;6.70;99.90
14908;DHT22;7545;52.092;7.006;2023-03-01T17:37:30;6.70;99.90
14908;DHT22;7545;52.092;7.006;2023-03-01T17:39:56;6.70;99.90
14908;DHT22;7545;52.092;7.006;2023-03-01T17:42:21;6.60;99.90
14908;DHT22;7545;52.092;7.006;2023-03-01T17:44:47;6.40;99.90
14908;DHT22;7545;52.092;7.006;2023-03-01T17:47:13;6.40;99.90
14908;DHT22;7545;52.092;7.006;2023-03-01T17:49:38;6.40;99.90
14908;DHT22;7545;52.092;7.006;2023-03-01T17:52:04;6.30;99.90
14908;DHT22;7545;52.092;7.006;2023-03-01T17:54:29;6.30;99.90
14908;DHT22;7545;52.092;7.006;2023-03-01T17:56:58;6.30;99.90
14908;DHT22;7545;52.092;7.006;2023-03-01T17:59:24;6.40;99.90
14908;DHT22;7545;52.092;7.006;2023-03-01T18:01:56;6.40;99.90
14908;DHT22;7545;52.092;7.006;2023-03-01T18:04:22;6.50;99.90
14908;DHT22;7545;52.092;7.006;2023-03-01T18:06:47;6.40;99.90
14908;DHT22;7545;52.092;7.006;2023-03-01T18:09:13;6.40;99.90
14908;DHT22;7545;52.092;7.006;2023-03-01T18:11:39;6.20;99.90